Airfield :
LOGIN :

Register | Disclaimer

   EN    FR    IT 

 










Legend :    VFR   Marginal VFR   IFR   Intensive IFR   Very Intensive IFR
Visi :
Ceiling :
>= 8 km
>= 3000ft
5 to 8 km
1000 to 3000 ft
1500m to 5 km
500 to 1000 ft
800 to 1500m
200 to 500 ft
< 800m
< 200 ft
Symbols :   Thunderstorms  Fog  Heavy snow  Heavy precipitations  Wind > 20 kt
SIGMETs :     Misc.  Thunderstorms  Icing  Turbulence  Mountain Waves  Volcanic Ashes






- Airport Elevation : 466 ft


LHPA - Pápa

CURRENT METAR :
  • 031315Z 09004KT 9999 SCT050TCU 25/14 Q1014 TEMPO SHRA -TSRA RMK BLU

EXPIRED METARs :
  • 031245Z 10004KT CAVOK 25/14 Q1014 NOSIG RMK BLU
  • 031215Z 10002KT 9999 FEW050TCU SCT060 25/14 Q1014 NOSIG RMK BLU
  • 031145Z 13006KT 100V160 9999 SCT050TCU SCT067 25/13 Q1015 TEMPO -SHRA RMK BLU
  • 031115Z 23006KT 190V250 9999 SCT050TCU 24/14 Q1015 NOSIG RMK BLU
  • 031045Z 17004KT CAVOK 24/14 Q1016 TEMPO -SHRA RMK BLU

TAF TAF LHPA
Valid from the 03 at 12:00 until the 04 at 12:00 UTC


031115Z 0312/0412 18007KT CAVOK
PROB30
TEMPO 0312/0317 VRB11G22KT 8000 SHRA -TSRA FEW030CB SCT040TCU BKN060
TEMPO 0317/0401 VRB16G27KT 5000 TSRA SHRA SCT010 SCT020CB BKN040TCU
PROB30
TEMPO 0401/0406 VRB03KT 8000 MIBCFG SCT010 BKN200
TEMPO 0406/0412 34006KT 9999 SCT030 BKN200



MET'MAP, your aeronautical weather chart ! - Copyright ORBIFLY December 2007 - Disclaimer

ORBIFLY MET'MAP TEAM :

Programming & Development : Alexandra Zaïnal
Concept & original design : Baudouin d'Aumeries
Assistance for programming : Marc-Olivier Méhu
Technical & hardware support : Manuel Goepfert

Contact : metmap@orbifly.com




SOURCES & CREDITS :

   NOAA